ADDS METAR Data INFO
IDs: Format: Raw Decoded Include TAF

Data at: 1357 UTC 17 Dec 2017

KSCH 170147Z AUTO 00000KT 10SM CLR M06/M08 A3017 RMK LAST
KSCH 170057Z AUTO 29006KT 10SM CLR M06/M08 A3014
KSCH 162346Z AUTO 27006KT 10SM BKN048 BKN055 M04/M08 A3011
KSCH 162255Z AUTO 30008KT 10SM SCT050 M04/M08 A3008
KSCH 162145Z AUTO 30005KT 10SM BKN060 M03/M06 A3002
KSCH 162049Z AUTO 29011KT 10SM -SN OVC060 M03/M06 A2999
KSCH 161955Z AUTO 30012KT 4SM -SN SCT027 BKN035 OVC080 M03/M06 A2996
KSCH 161852Z AUTO 29005KT 4SM -SN BKN034 OVC045 M03/M06 A2994
KSCH 161745Z AUTO 29008KT 10SM SCT041 BKN047 OVC050 M02/M08 A2992
KSCH 161545Z AUTO 00000KT 10SM SCT038 SCT047 OVC060 M02/M09 A2993
KSCH 161445Z AUTO 00000KT 10SM SCT065 M04/M09 A2994
KSCH 161255Z AUTO 10003KT 10SM CLR M13/M14 A2990 RMK FIRST
KSCH 160259Z AUTO 19003KT 10SM SCT038 OVC055 M07/M11 A2984 RMK LAST
KSCH 160158Z 22004KT 10SM SCT039 OVC045 M07/M11 A2984